Terminal Aerodrome Forecast
Issued by NWS

Home | Current Version | Previous Version | Text Only | Print | Product List | Glossary On
Versions: 1 2 3 4 5 6 7 8 9 10 11 12 13 14 15 16 17 18
000
FTUS42 KMLB 161100
TAFSUA
TAF
KSUA 161126Z 1612/1712 VRB03KT P6SM SCT060 SCT250
     FM161400 29005KT P6SM SCT030 BKN250
     FM161800 09010KT P6SM VCTS SCT040CB BKN080
     FM170100 26004KT P6SM VCSH SCT080 OVC150=

USA.gov is the U.S. government's official web portal to all federal, state and local government web resources and services.